Pisgah, Alabama
Current Conditions -  °F | °C
As of 10:15 AM on Wednesday 28 Jan 2015 (Local Time) from K4A6 Reporting Station
Clear Clear  
Wind Chill: 37°   Ceiling: Unl
Heat Index: 41°   Visibility: 10mi
Dew Point: 25°   Wind: 6mph
Humidity: 53%   Direction: 50°NE
Pressure: 30.33"   Gusts: 16mph
Location:  34.68°N, 85.85°W
Report Text: K4A6 281615Z AUTO 05005G14KT 10SM CLR 05/M04 A3033 RMK AO2
Loading
Personal Weather Stations






























Interactive Weather Map New forecast layout! Learn more

10-Day Weather Forecast

Advertisements
Track Severe Weather on mobile